createdAt,value
2017-09-19T00:01:08.375Z,99.90
2017-09-19T00:03:37.856Z,99.90
2017-09-19T00:06:06.199Z,99.90
2017-09-19T00:08:34.495Z,99.90
2017-09-19T00:11:03.551Z,99.90
2017-09-19T00:13:31.924Z,99.90
2017-09-19T00:16:00.995Z,99.90
2017-09-19T00:20:58.871Z,99.90
2017-09-19T00:23:27.930Z,99.90
2017-09-19T00:25:56.242Z,99.90
2017-09-19T00:28:24.599Z,99.90
2017-09-19T00:30:52.895Z,99.90
2017-09-19T00:35:51.156Z,99.90
2017-09-19T00:40:48.963Z,99.90
2017-09-19T00:43:17.364Z,99.90
2017-09-19T00:45:46.077Z,99.90
2017-09-19T00:48:15.571Z,99.90
2017-09-19T00:50:44.334Z,99.90
2017-09-19T00:53:13.643Z,99.90
2017-09-19T00:55:41.984Z,99.90
2017-09-19T00:58:11.135Z,99.90
2017-09-19T01:00:39.824Z,99.90
2017-09-19T01:03:08.115Z,99.90
2017-09-19T01:08:06.122Z,99.90
2017-09-19T01:10:34.414Z,99.90
2017-09-19T01:13:02.751Z,99.90
2017-09-19T01:15:31.046Z,99.90
2017-09-19T01:18:00.851Z,99.90
2017-09-19T01:20:29.986Z,99.90
2017-09-19T01:22:58.289Z,99.90
2017-09-19T01:25:26.987Z,99.90
2017-09-19T01:27:56.132Z,99.90
2017-09-19T01:30:24.430Z,99.90
2017-09-19T01:32:53.492Z,99.90
2017-09-19T01:35:22.608Z,99.90
2017-09-19T01:37:50.903Z,99.90
2017-09-19T01:40:19.971Z,99.90
2017-09-19T01:42:48.325Z,99.90
2017-09-19T01:45:16.653Z,99.90
2017-09-19T01:47:44.969Z,99.90
2017-09-19T01:50:14.488Z,99.90
2017-09-19T01:52:43.199Z,99.90
2017-09-19T01:55:11.535Z,99.90
2017-09-19T01:57:40.671Z,99.90
2017-09-19T02:00:08.971Z,99.90
2017-09-19T02:02:37.476Z,99.90
2017-09-19T02:05:05.932Z,99.90
2017-09-19T02:07:35.119Z,99.90
2017-09-19T02:10:03.802Z,99.90
2017-09-19T02:12:32.164Z,99.90
2017-09-19T02:15:00.463Z,99.90
2017-09-19T02:17:28.773Z,99.90
2017-09-19T02:19:57.114Z,99.90
2017-09-19T02:22:25.794Z,99.90
2017-09-19T02:24:54.086Z,99.90
2017-09-19T02:27:22.683Z,99.90
2017-09-19T02:29:52.106Z,99.90
2017-09-19T02:35:18.851Z,99.90
2017-09-19T02:38:04.767Z,99.90
2017-09-19T02:41:00.191Z,99.90
2017-09-19T02:43:30.283Z,99.90
2017-09-19T02:45:58.989Z,99.90
2017-09-19T02:48:27.348Z,99.90
2017-09-19T02:50:55.640Z,99.90
2017-09-19T02:53:41.782Z,99.90
2017-09-19T02:56:34.463Z,99.90
2017-09-19T02:59:26.904Z,99.90
2017-09-19T03:02:19.099Z,99.90
2017-09-19T03:04:53.751Z,99.90
2017-09-19T03:07:23.547Z,99.90
2017-09-19T03:09:52.602Z,99.90
2017-09-19T03:12:20.979Z,99.90
2017-09-19T03:14:50.030Z,99.90
2017-09-19T03:17:18.322Z,99.90
2017-09-19T03:19:47.459Z,99.90
2017-09-19T03:22:16.512Z,99.90
2017-09-19T03:24:44.817Z,99.90
2017-09-19T03:27:13.163Z,99.90
2017-09-19T03:29:41.461Z,99.90
2017-09-19T03:32:09.749Z,99.90
2017-09-19T03:34:38.847Z,99.90
2017-09-19T03:37:07.150Z,99.90
2017-09-19T03:39:36.943Z,99.90
2017-09-19T03:42:05.282Z,99.90
2017-09-19T03:44:33.570Z,99.90
2017-09-19T03:47:01.859Z,99.90
2017-09-19T03:49:31.352Z,99.90
2017-09-19T03:54:29.571Z,99.90
2017-09-19T03:56:57.927Z,99.90
2017-09-19T03:59:26.603Z,99.90
2017-09-19T04:01:54.892Z,99.90
2017-09-19T04:04:24.383Z,99.90
2017-09-19T04:06:52.662Z,99.90
2017-09-19T04:09:21.718Z,99.90
2017-09-19T04:11:51.244Z,99.90
2017-09-19T04:14:19.531Z,99.90
2017-09-19T04:16:47.818Z,99.90
2017-09-19T04:19:16.165Z,99.90
2017-09-19T04:21:44.859Z,99.90
2017-09-19T04:24:13.179Z,99.90
2017-09-19T04:26:41.595Z,99.90
2017-09-19T04:29:09.904Z,99.90
2017-09-19T04:31:38.195Z,99.90
2017-09-19T04:34:07.432Z,99.90
2017-09-19T04:36:36.492Z,99.90
2017-09-19T04:39:04.781Z,99.90
2017-09-19T04:41:34.623Z,99.90
2017-09-19T04:44:02.910Z,99.90
2017-09-19T04:46:32.340Z,99.90
2017-09-19T04:49:00.703Z,99.90
2017-09-19T04:51:29.015Z,99.90
2017-09-19T04:53:57.298Z,99.90
2017-09-19T04:56:26.779Z,99.90
2017-09-19T04:58:55.458Z,99.90
2017-09-19T05:01:26.311Z,99.90
2017-09-19T05:03:56.158Z,99.90
2017-09-19T05:06:25.212Z,99.90
2017-09-19T05:08:53.494Z,99.90
2017-09-19T05:11:21.850Z,99.90
2017-09-19T05:13:50.200Z,99.90
2017-09-19T05:16:19.252Z,99.90
2017-09-19T05:18:48.372Z,99.90
2017-09-19T05:21:17.795Z,99.90
2017-09-19T05:23:46.847Z,99.90
2017-09-19T05:26:15.221Z,99.90
2017-09-19T05:28:45.028Z,99.90
2017-09-19T05:31:14.096Z,99.90
2017-09-19T05:33:42.853Z,99.90
2017-09-19T05:36:11.143Z,99.90
2017-09-19T05:38:40.576Z,99.90
2017-09-19T05:41:09.684Z,99.90
2017-09-19T05:43:38.760Z,99.90
2017-09-19T05:46:07.050Z,99.90
2017-09-19T05:48:36.156Z,99.90
2017-09-19T05:51:04.830Z,99.90
2017-09-19T05:53:33.118Z,99.90
2017-09-19T05:56:01.460Z,99.90
2017-09-19T05:58:29.758Z,99.90
2017-09-19T06:00:58.046Z,99.90
2017-09-19T06:03:26.387Z,99.90
2017-09-19T06:05:54.680Z,99.90
2017-09-19T06:08:24.096Z,99.90
2017-09-19T06:10:52.440Z,99.90
2017-09-19T06:15:51.383Z,99.90
2017-09-19T06:18:21.248Z,99.90
2017-09-19T06:20:49.535Z,99.90
2017-09-19T06:23:19.331Z,99.90
2017-09-19T06:25:47.678Z,99.90
2017-09-19T06:28:16.735Z,99.90
2017-09-19T06:30:45.042Z,99.90
2017-09-19T06:33:13.382Z,99.90
2017-09-19T06:35:41.671Z,99.90
2017-09-19T06:38:11.487Z,99.90
2017-09-19T06:40:41.334Z,99.90
2017-09-19T06:43:09.624Z,99.90
2017-09-19T06:45:37.934Z,99.90
2017-09-19T06:48:06.660Z,99.90
2017-09-19T06:50:36.446Z,99.90
2017-09-19T06:53:04.731Z,99.90
2017-09-19T06:55:33.083Z,99.90
2017-09-19T07:00:32.011Z,99.90
2017-09-19T07:03:01.131Z,99.90
2017-09-19T07:05:29.425Z,99.90
2017-09-19T07:07:58.474Z,99.90
2017-09-19T07:10:27.962Z,99.90
2017-09-19T07:12:56.645Z,99.90
2017-09-19T07:15:24.932Z,99.90
2017-09-19T07:17:54.827Z,99.90
2017-09-19T07:20:23.888Z,99.90
2017-09-19T07:22:53.683Z,99.90
2017-09-19T07:25:22.020Z,99.90
2017-09-19T07:27:51.449Z,99.90
2017-09-19T07:30:20.504Z,99.90
2017-09-19T07:32:48.855Z,99.90
2017-09-19T07:35:18.279Z,99.90
2017-09-19T07:40:16.536Z,99.90
2017-09-19T07:42:44.827Z,99.90
2017-09-19T07:45:13.136Z,99.90
2017-09-19T07:47:41.484Z,99.90
2017-09-19T07:50:10.559Z,99.90
2017-09-19T07:52:38.864Z,99.90
2017-09-19T07:55:07.193Z,99.90
2017-09-19T07:57:36.612Z,99.90
2017-09-19T08:00:04.923Z,99.90
2017-09-19T08:02:33.280Z,99.90
2017-09-19T08:05:03.070Z,99.90
2017-09-19T08:07:31.363Z,99.90
2017-09-19T08:09:59.719Z,99.90
2017-09-19T08:12:28.014Z,99.90
2017-09-19T08:14:56.300Z,99.90
2017-09-19T08:17:26.139Z,99.90
2017-09-19T08:24:53.922Z,99.90
2017-09-19T08:27:22.207Z,99.90
2017-09-19T08:29:51.636Z,99.90
2017-09-19T08:32:20.362Z,99.90
2017-09-19T08:37:18.567Z,99.90
2017-09-19T08:39:46.924Z,99.90
2017-09-19T08:42:15.236Z,99.90
2017-09-19T08:44:43.531Z,99.90
2017-09-19T08:47:11.896Z,99.90
2017-09-19T08:49:40.963Z,99.90
2017-09-19T08:52:10.020Z,99.90
2017-09-19T08:54:38.376Z,99.90
2017-09-19T08:57:07.803Z,99.90
2017-09-19T08:59:36.087Z,99.90
2017-09-19T09:02:04.419Z,99.90
2017-09-19T09:07:03.355Z,99.90
2017-09-19T09:09:32.112Z,99.90
2017-09-19T09:12:01.899Z,99.90
2017-09-19T09:14:30.201Z,99.90
2017-09-19T09:16:58.559Z,99.90
2017-09-19T09:19:26.851Z,99.90
2017-09-19T09:21:56.646Z,99.90
2017-09-19T09:24:26.487Z,99.90
2017-09-19T09:26:54.771Z,99.90
2017-09-19T09:29:23.054Z,99.90
2017-09-19T09:31:51.419Z,99.90
2017-09-19T09:34:19.698Z,99.90
2017-09-19T09:36:47.992Z,99.90
2017-09-19T09:39:16.351Z,99.90
2017-09-19T09:41:46.163Z,99.90
2017-09-19T09:46:44.452Z,99.90
2017-09-19T09:49:12.747Z,99.90
2017-09-19T09:51:41.937Z,99.90
2017-09-19T09:54:11.758Z,99.90
2017-09-19T09:56:40.064Z,99.90
2017-09-19T09:59:08.384Z,99.90
2017-09-19T10:01:36.727Z,99.90
2017-09-19T10:04:05.015Z,99.90
2017-09-19T10:06:33.332Z,99.90
2017-09-19T10:09:02.424Z,99.90
2017-09-19T10:11:30.737Z,99.90
2017-09-19T10:13:59.058Z,99.90
2017-09-19T10:16:27.416Z,99.90
2017-09-19T10:18:55.699Z,99.90
2017-09-19T10:21:23.986Z,99.90
2017-09-19T10:23:52.713Z,99.90
2017-09-19T10:26:22.512Z,99.90
2017-09-19T10:28:51.568Z,99.90
2017-09-19T10:31:20.687Z,99.90
2017-09-19T10:33:49.738Z,99.90
2017-09-19T10:41:17.863Z,99.90
2017-09-19T10:43:46.815Z,99.90
2017-09-19T10:46:15.148Z,99.90
2017-09-19T10:48:43.440Z,99.90
2017-09-19T10:51:12.500Z,99.90
2017-09-19T10:53:40.853Z,99.90
2017-09-19T10:56:09.134Z,99.90
2017-09-19T10:58:37.436Z,99.90
2017-09-19T11:01:05.759Z,99.90
2017-09-19T11:03:34.046Z,99.90
2017-09-19T11:06:03.843Z,99.90
2017-09-19T11:08:32.959Z,99.90
2017-09-19T11:11:01.650Z,99.90
2017-09-19T11:13:30.723Z,99.90
2017-09-19T11:15:59.835Z,99.90
2017-09-19T11:18:28.122Z,99.90
2017-09-19T11:20:56.407Z,99.90
2017-09-19T11:23:25.515Z,99.90
2017-09-19T11:25:54.208Z,99.90
2017-09-19T11:28:22.504Z,99.90
2017-09-19T11:30:50.850Z,99.60
2017-09-19T11:33:19.140Z,98.60
2017-09-19T11:35:47.439Z,95.50
2017-09-19T11:38:16.928Z,95.30
2017-09-19T11:40:45.218Z,96.30
2017-09-19T11:43:13.549Z,96.80
2017-09-19T11:45:41.915Z,95.00
2017-09-19T11:48:11.730Z,95.80
2017-09-19T11:50:41.161Z,94.60
2017-09-19T11:53:10.314Z,94.60
2017-09-19T11:55:39.370Z,93.40
2017-09-19T11:58:07.659Z,92.10
2017-09-19T12:00:35.999Z,92.70
2017-09-19T12:03:05.794Z,92.90
2017-09-19T12:05:34.083Z,93.50
2017-09-19T12:08:02.429Z,93.20
2017-09-19T12:10:30.731Z,94.30
2017-09-19T12:12:59.032Z,94.00
2017-09-19T12:15:28.518Z,94.10
2017-09-19T12:17:56.799Z,95.10
2017-09-19T12:20:25.916Z,95.80
2017-09-19T12:27:53.556Z,96.70
2017-09-19T12:30:21.906Z,95.70
2017-09-19T12:32:50.963Z,95.50
2017-09-19T12:35:19.256Z,96.30
2017-09-19T12:37:50.199Z,95.00
2017-09-19T12:42:49.508Z,95.80
2017-09-19T12:47:47.367Z,95.20
2017-09-19T12:50:16.070Z,95.40
2017-09-19T12:52:44.430Z,95.40
2017-09-19T12:55:12.728Z,95.60
2017-09-19T12:57:41.040Z,97.00
2017-09-19T13:00:10.540Z,96.80
2017-09-19T13:02:38.839Z,97.00
2017-09-19T13:05:07.526Z,97.10
2017-09-19T13:07:37.388Z,97.50
2017-09-19T13:10:05.684Z,98.30
2017-09-19T13:12:34.743Z,99.40
2017-09-19T13:15:03.071Z,99.60
2017-09-19T13:17:32.127Z,98.30
2017-09-19T13:20:01.187Z,98.50
2017-09-19T13:22:30.293Z,99.40
2017-09-19T13:24:59.377Z,99.00
2017-09-19T13:27:27.667Z,99.70
2017-09-19T13:29:56.002Z,99.70
2017-09-19T13:32:36.066Z,99.30
2017-09-19T13:35:04.390Z,99.20
2017-09-19T13:37:32.687Z,99.10
2017-09-19T13:40:00.981Z,99.70
2017-09-19T13:42:30.466Z,99.60
2017-09-19T13:44:58.763Z,98.50
2017-09-19T13:47:27.054Z,99.50
2017-09-19T13:49:55.389Z,99.10
2017-09-19T13:52:24.452Z,98.90
2017-09-19T13:54:53.510Z,97.60
2017-09-19T13:57:21.838Z,97.60
2017-09-19T13:59:50.890Z,96.60
2017-09-19T14:02:19.183Z,97.00
2017-09-19T14:07:17.447Z,97.40
2017-09-19T14:09:45.748Z,98.00
2017-09-19T14:12:15.754Z,96.80
2017-09-19T14:14:44.069Z,97.50
2017-09-19T14:17:12.366Z,97.00
2017-09-19T14:19:40.739Z,97.00
2017-09-19T14:22:09.035Z,97.70
2017-09-19T14:27:06.911Z,97.40
2017-09-19T14:29:35.195Z,97.50
2017-09-19T14:32:04.986Z,97.90
2017-09-19T14:34:33.311Z,97.40
2017-09-19T14:37:01.607Z,97.50
2017-09-19T14:39:29.920Z,98.10
2017-09-19T14:41:59.052Z,99.10
2017-09-19T14:44:27.330Z,98.70
2017-09-19T14:46:57.139Z,99.20
2017-09-19T14:49:25.475Z,98.80
2017-09-19T14:51:53.759Z,98.30
2017-09-19T14:54:22.043Z,98.90
2017-09-19T14:56:51.513Z,98.50
2017-09-19T14:59:19.804Z,98.60
2017-09-19T15:01:48.092Z,99.10
2017-09-19T15:04:16.468Z,99.00
2017-09-19T15:06:44.764Z,99.70
2017-09-19T15:09:13.073Z,99.90
2017-09-19T15:16:41.210Z,99.90
2017-09-19T15:24:08.639Z,99.90
2017-09-19T15:26:37.752Z,99.90
2017-09-19T15:29:06.807Z,99.90
2017-09-19T15:34:05.058Z,99.90
2017-09-19T15:36:33.752Z,99.90
2017-09-19T15:39:02.040Z,99.90
2017-09-19T15:41:30.417Z,99.90
2017-09-19T15:43:59.857Z,99.90
2017-09-19T15:48:58.498Z,99.90
2017-09-19T15:51:26.788Z,99.90
2017-09-19T15:53:56.586Z,99.90
2017-09-19T16:03:54.255Z,99.90
2017-09-19T16:06:22.538Z,99.90
2017-09-19T16:08:50.827Z,99.90
2017-09-19T16:11:19.155Z,99.90
2017-09-19T16:13:47.447Z,99.90
2017-09-19T16:16:15.755Z,99.90
2017-09-19T16:21:14.052Z,99.90
2017-09-19T16:23:42.343Z,99.90
2017-09-19T16:26:11.829Z,99.90
2017-09-19T16:28:40.165Z,99.90
2017-09-19T16:31:08.460Z,99.90
2017-09-19T16:33:36.786Z,99.90
2017-09-19T16:36:05.071Z,99.90
2017-09-19T16:38:34.867Z,99.90
2017-09-19T16:41:03.203Z,99.90
2017-09-19T16:43:31.512Z,99.90
2017-09-19T16:46:00.580Z,99.90
2017-09-19T16:48:28.948Z,99.90
2017-09-19T16:50:57.235Z,99.90
2017-09-19T16:53:26.663Z,99.90
2017-09-19T16:55:55.008Z,99.90
2017-09-19T16:58:23.295Z,99.90
2017-09-19T17:00:52.433Z,99.90
2017-09-19T17:03:21.184Z,99.90
2017-09-19T17:05:49.479Z,99.90
2017-09-19T17:08:17.766Z,99.90
2017-09-19T17:10:46.173Z,99.90
2017-09-19T17:15:44.825Z,99.90
2017-09-19T17:18:14.717Z,99.90
2017-09-19T17:20:43.003Z,99.90
2017-09-19T17:23:11.318Z,99.90
2017-09-19T17:25:41.179Z,99.90
2017-09-19T17:28:09.545Z,99.90
2017-09-19T17:30:38.598Z,99.90
2017-09-19T17:33:06.984Z,99.90
2017-09-19T17:35:36.795Z,99.90
2017-09-19T17:38:05.094Z,99.90
2017-09-19T17:40:33.426Z,99.90
2017-09-19T17:43:01.723Z,99.90
2017-09-19T17:47:59.734Z,99.90
2017-09-19T17:52:57.939Z,99.90
2017-09-19T17:55:26.275Z,99.90
2017-09-19T17:57:54.589Z,99.90
2017-09-19T18:00:23.223Z,99.90
2017-09-19T18:02:51.971Z,99.90
2017-09-19T18:05:20.268Z,99.90
2017-09-19T18:07:49.326Z,99.90
2017-09-19T18:10:19.255Z,99.90
2017-09-19T18:12:47.552Z,99.90
2017-09-19T18:15:16.615Z,99.90
2017-09-19T18:17:44.970Z,99.90
2017-09-19T18:20:13.294Z,99.90
2017-09-19T18:22:42.733Z,99.90
2017-09-19T18:25:11.123Z,99.90
2017-09-19T18:27:39.803Z,99.90
2017-09-19T18:32:37.713Z,99.90
2017-09-19T18:35:06.007Z,99.90
2017-09-19T18:37:35.812Z,99.90
2017-09-19T18:40:04.703Z,99.90
2017-09-19T18:42:33.764Z,99.90
2017-09-19T18:45:02.849Z,99.90
2017-09-19T18:47:31.988Z,99.90
2017-09-19T18:50:00.273Z,99.90
2017-09-19T18:52:29.617Z,99.90
2017-09-19T18:54:58.028Z,99.90
2017-09-19T18:57:27.143Z,99.90
2017-09-19T18:59:56.584Z,99.90
2017-09-19T19:02:24.924Z,99.90
2017-09-19T19:07:23.513Z,99.90
2017-09-19T19:09:51.906Z,99.90
2017-09-19T19:12:22.001Z,99.90
2017-09-19T19:14:50.294Z,99.90
2017-09-19T19:17:19.803Z,99.90
2017-09-19T19:19:48.140Z,99.90
2017-09-19T19:22:17.622Z,99.90
2017-09-19T19:27:15.513Z,99.90
2017-09-19T19:29:44.040Z,99.90
2017-09-19T19:32:12.420Z,99.90
2017-09-19T19:34:41.574Z,99.90
2017-09-19T19:37:10.292Z,99.90
2017-09-19T19:39:38.738Z,99.90
2017-09-19T19:42:07.140Z,99.90
2017-09-19T19:44:36.575Z,99.90
2017-09-19T19:47:04.958Z,99.90
2017-09-19T19:49:33.256Z,99.90
2017-09-19T19:52:01.572Z,99.90
2017-09-19T19:54:29.943Z,99.90
2017-09-19T19:56:58.235Z,99.90
2017-09-19T19:59:27.376Z,99.90
2017-09-19T20:01:55.944Z,99.90
2017-09-19T20:04:24.251Z,99.90
2017-09-19T20:06:52.551Z,99.90
2017-09-19T20:09:22.408Z,99.90
2017-09-19T20:11:50.690Z,99.90
2017-09-19T20:16:50.076Z,99.90
2017-09-19T20:21:48.291Z,99.90
2017-09-19T20:24:16.722Z,99.90
2017-09-19T20:26:45.430Z,99.90
2017-09-19T20:29:14.572Z,99.90
2017-09-19T20:34:12.891Z,99.90
2017-09-19T20:36:41.200Z,99.90
2017-09-19T20:39:09.581Z,99.90
2017-09-19T20:41:37.860Z,99.90
2017-09-19T20:44:08.596Z,99.90
2017-09-19T20:46:36.947Z,99.90
2017-09-19T20:49:05.255Z,99.90
2017-09-19T20:51:34.683Z,99.90
2017-09-19T20:54:04.163Z,99.90
2017-09-19T20:56:33.582Z,99.90
2017-09-19T20:59:01.900Z,99.90
2017-09-19T21:01:30.656Z,99.90
2017-09-19T21:04:05.430Z,99.90
2017-09-19T21:06:40.248Z,99.90
2017-09-19T21:09:14.208Z,99.90
2017-09-19T21:11:49.423Z,99.90
2017-09-19T21:14:24.210Z,99.90
2017-09-19T21:16:58.714Z,99.90
2017-09-19T21:19:26.503Z,99.90
2017-09-19T21:21:56.331Z,99.90
2017-09-19T21:24:25.447Z,99.90
2017-09-19T21:29:24.010Z,99.90
2017-09-19T21:31:52.695Z,99.90
2017-09-19T21:34:21.393Z,99.90
2017-09-19T21:36:50.404Z,99.90
2017-09-19T21:39:19.506Z,99.90
2017-09-19T21:41:47.799Z,99.90
2017-09-19T21:44:18.576Z,99.90
2017-09-19T21:46:47.058Z,99.90
2017-09-19T21:49:16.154Z,99.90
2017-09-19T21:51:44.484Z,99.90
2017-09-19T21:54:12.883Z,99.90
2017-09-19T21:56:42.726Z,99.90
2017-09-19T21:59:11.051Z,99.90
2017-09-19T22:01:39.412Z,99.90
2017-09-19T22:04:07.760Z,99.90
2017-09-19T22:06:37.154Z,99.90
2017-09-19T22:09:07.067Z,99.90
2017-09-19T22:11:35.440Z,99.90
2017-09-19T22:14:04.140Z,99.90
2017-09-19T22:16:32.500Z,99.90
2017-09-19T22:19:01.584Z,99.90
2017-09-19T22:21:29.904Z,99.90
2017-09-19T22:23:58.267Z,99.90
2017-09-19T22:28:56.091Z,99.90
2017-09-19T22:31:24.448Z,99.90
2017-09-19T22:33:52.776Z,99.90
2017-09-19T22:36:21.115Z,99.90
2017-09-19T22:41:19.056Z,99.90
2017-09-19T22:43:48.129Z,99.90
2017-09-19T22:46:18.139Z,99.90
2017-09-19T22:48:47.207Z,99.90
2017-09-19T22:51:15.508Z,99.90
2017-09-19T22:53:43.930Z,99.90
2017-09-19T22:56:13.010Z,99.90
2017-09-19T22:58:42.083Z,99.90
2017-09-19T23:01:11.248Z,99.90
2017-09-19T23:03:39.531Z,99.90
2017-09-19T23:08:37.432Z,99.90
2017-09-19T23:11:06.529Z,99.90
2017-09-19T23:13:34.831Z,99.90
2017-09-19T23:16:04.617Z,99.90
2017-09-19T23:18:32.936Z,99.90
2017-09-19T23:21:01.277Z,99.90
2017-09-19T23:23:29.652Z,99.90
2017-09-19T23:25:58.720Z,99.90
2017-09-19T23:33:26.576Z,99.90
2017-09-19T23:35:54.874Z,99.90
2017-09-19T23:38:23.265Z,99.90
2017-09-19T23:40:53.135Z,99.90
2017-09-19T23:43:21.440Z,99.90
2017-09-19T23:45:52.016Z,99.90
2017-09-19T23:48:20.338Z,99.90
2017-09-19T23:50:49.796Z,99.90
2017-09-19T23:53:18.155Z,99.90
2017-09-19T23:55:46.942Z,99.90
2017-09-19T23:58:15.785Z,99.90
